Time;durP1;ratioP1;P1;durP2;ratioP2;P2;SDS_P1;SDS_P2;PMS_P1;PMS_P2;Temp;Humidity;BMP_temperature;BMP_pressure;BME280_temperature;BME280_humidity;BME280_pressure;Samples;Min_cycle;Max_cycle;Signal;HPM_P1;HPM_P2
2023/05/30 00:00:10;;;;;;;0.10;0.10;;;;;;;;;;5025058;28;20050;-77
2023/05/30 00:02:37;;;;;;;0.10;0.10;;;;;;;;;;5025593;28;20419;-77
2023/05/30 00:05:04;;;;;;;0.52;0.52;;;;;;;;;;5025459;28;20060;-77
2023/05/30 00:07:31;;;;;;;0.10;0.10;;;;;;;;;;5024753;28;20141;-77
2023/05/30 00:09:57;;;;;;;0.10;0.10;;;;;;;;;;5026488;28;20451;-77
2023/05/30 00:12:23;;;;;;;0.10;0.10;;;;;;;;;;5012732;28;20112;-77
2023/05/30 00:14:50;;;;;;;0.10;0.10;;;;;;;;;;5018892;28;20601;-78
2023/05/30 00:17:17;;;;;;;0.10;0.10;;;;;;;;;;5027044;28;20061;-77
2023/05/30 00:19:45;;;;;;;0.10;0.10;;;;;;;;;;5026776;28;20599;-77
2023/05/30 00:22:12;;;;;;;0.10;0.10;;;;;;;;;;5022012;28;20054;-77
2023/05/30 00:24:38;;;;;;;0.10;0.10;;;;;;;;;;5016415;28;20050;-77
2023/05/30 00:27:05;;;;;;;0.10;0.10;;;;;;;;;;5025973;28;20053;-77
2023/05/30 00:29:31;;;;;;;0.10;0.10;;;;;;;;;;5026603;28;20136;-77
2023/05/30 00:31:58;;;;;;;0.10;0.10;;;;;;;;;;5024679;28;20108;-77
2023/05/30 00:34:24;;;;;;;0.10;0.10;;;;;;;;;;5025679;28;20061;-77
2023/05/30 00:36:51;;;;;;;0.20;0.20;;;;;;;;;;5025341;28;20085;-78
2023/05/30 00:39:18;;;;;;;0.10;0.10;;;;;;;;;;5026618;28;20085;-77
2023/05/30 00:41:45;;;;;;;0.10;0.10;;;;;;;;;;5025311;28;20049;-77
2023/05/30 00:44:11;;;;;;;0.20;0.20;;;;;;;;;;5025948;28;20152;-77
2023/05/30 00:46:38;;;;;;;0.10;0.10;;;;;;;;;;5026311;28;20175;-77
2023/05/30 00:49:04;;;;;;;0.10;0.10;;;;;;;;;;5026142;28;21113;-77
2023/05/30 00:51:32;;;;;;;0.10;0.10;;;;;;;;;;5024179;28;20061;-77
2023/05/30 00:53:59;;;;;;;0.10;0.10;;;;;;;;;;5024260;28;20054;-77
2023/05/30 00:56:26;;;;;;;0.20;0.20;;;;;;;;;;5024446;28;20241;-77
2023/05/30 00:58:52;;;;;;;0.10;0.10;;;;;;;;;;5014629;28;20061;-77
2023/05/30 01:01:20;;;;;;;0.10;0.10;;;;;;;;;;5011532;28;20144;-77
2023/05/30 01:03:50;;;;;;;0.10;0.10;;;;;;;;;;5021975;28;20061;-77
2023/05/30 01:06:17;;;;;;;0.10;0.10;;;;;;;;;;5012187;28;20112;-77
2023/05/30 01:08:44;;;;;;;0.10;0.10;;;;;;;;;;5024416;28;20112;-77
2023/05/30 01:11:17;;;;;;;0.10;0.10;;;;;;;;;;5021642;28;20562;-77
2023/05/30 01:13:50;;;;;;;0.10;0.10;;;;;;;;;;5023477;28;20161;-77
2023/05/30 01:16:18;;;;;;;0.98;0.20;;;;;;;;;;5018859;28;20129;-77
2023/05/30 01:18:55;;;;;;;0.10;0.10;;;;;;;;;;5020502;28;20116;-77
2023/05/30 01:21:24;;;;;;;0.38;0.38;;;;;;;;;;5024918;28;20521;-77
2023/05/30 01:24:09;;;;;;;0.15;0.15;;;;;;;;;;5024854;28;20574;-77
2023/05/30 01:26:44;;;;;;;0.10;0.10;;;;;;;;;;5020954;28;20050;-77
2023/05/30 01:29:13;;;;;;;0.10;0.10;;;;;;;;;;5022696;28;20061;-77
2023/05/30 01:31:40;;;;;;;0.10;0.10;;;;;;;;;;5022325;28;20504;-78
2023/05/30 01:34:06;;;;;;;0.25;0.25;;;;;;;;;;5024446;28;20606;-77
2023/05/30 01:36:33;;;;;;;0.10;0.10;;;;;;;;;;5025112;28;20508;-77
2023/05/30 01:38:59;;;;;;;0.10;0.10;;;;;;;;;;5016759;28;20067;-76
2023/05/30 01:41:34;;;;;;;0.10;0.10;;;;;;;;;;5005827;28;20050;-77
2023/05/30 01:44:24;;;;;;;0.10;0.10;;;;;;;;;;5023489;28;20093;-77
2023/05/30 01:47:04;;;;;;;0.10;0.10;;;;;;;;;;5020675;28;20140;-77
2023/05/30 01:49:39;;;;;;;0.10;0.10;;;;;;;;;;5020247;28;20200;-77
2023/05/30 01:52:11;;;;;;;0.10;0.10;;;;;;;;;;5022267;28;20050;-77
2023/05/30 01:54:40;;;;;;;0.10;0.10;;;;;;;;;;5010428;28;20046;-77
2023/05/30 01:57:09;;;;;;;0.10;0.10;;;;;;;;;;5023276;28;20058;-77
2023/05/30 01:59:37;;;;;;;0.10;0.10;;;;;;;;;;5024602;28;20060;-77
2023/05/30 02:02:03;;;;;;;0.10;0.10;;;;;;;;;;5022257;28;20539;-77
2023/05/30 02:04:30;;;;;;;0.10;0.10;;;;;;;;;;5022191;28;20112;-77
2023/05/30 02:06:56;;;;;;;0.10;0.10;;;;;;;;;;5022533;28;20054;-77
2023/05/30 02:09:23;;;;;;;0.10;0.10;;;;;;;;;;5025478;28;20136;-77
2023/05/30 02:11:50;;;;;;;0.10;0.10;;;;;;;;;;5024452;28;20057;-77
2023/05/30 02:14:16;;;;;;;0.10;0.10;;;;;;;;;;5023072;28;20960;-75
2023/05/30 02:16:44;;;;;;;0.10;0.10;;;;;;;;;;5024395;28;20085;-75
2023/05/30 02:19:12;;;;;;;0.10;0.10;;;;;;;;;;5027037;28;20057;-75
2023/05/30 02:21:39;;;;;;;0.10;0.10;;;;;;;;;;5020433;28;20050;-75
2023/05/30 02:24:05;;;;;;;0.10;0.10;;;;;;;;;;5018442;28;20566;-75
2023/05/30 02:26:34;;;;;;;0.10;0.10;;;;;;;;;;5022492;28;20681;-75
2023/05/30 02:29:00;;;;;;;0.10;0.10;;;;;;;;;;5007160;28;20039;-76
2023/05/30 02:31:27;;;;;;;0.10;0.10;;;;;;;;;;5009063;28;20121;-75
2023/05/30 02:33:53;;;;;;;0.10;0.10;;;;;;;;;;5019676;28;20129;-75
2023/05/30 02:36:20;;;;;;;0.10;0.10;;;;;;;;;;5019040;28;20567;-74
2023/05/30 02:38:46;;;;;;;0.10;0.10;;;;;;;;;;5005781;28;20943;-75
2023/05/30 02:41:13;;;;;;;0.30;0.30;;;;;;;;;;5005581;28;20055;-74
2023/05/30 02:43:40;;;;;;;0.10;0.10;;;;;;;;;;5020152;28;20060;-75
2023/05/30 02:46:06;;;;;;;0.10;0.10;;;;;;;;;;5024526;28;20104;-75
2023/05/30 02:48:33;;;;;;;0.10;0.10;;;;;;;;;;5025597;28;20590;-75
2023/05/30 02:50:59;;;;;;;0.20;0.20;;;;;;;;;;5022850;28;20058;-75
2023/05/30 02:53:26;;;;;;;0.10;0.10;;;;;;;;;;5020728;28;20054;-75
2023/05/30 02:55:54;;;;;;;0.10;0.10;;;;;;;;;;5023872;28;20057;-75
2023/05/30 02:58:20;;;;;;;0.10;0.10;;;;;;;;;;5023064;28;20185;-75
2023/05/30 03:00:47;;;;;;;0.10;0.10;;;;;;;;;;5024599;28;20135;-75
2023/05/30 03:03:14;;;;;;;0.98;0.75;;;;;;;;;;5020611;28;20058;-75
2023/05/30 03:05:41;;;;;;;0.10;0.10;;;;;;;;;;5003349;28;20061;-75
2023/05/30 03:08:08;;;;;;;0.10;0.10;;;;;;;;;;5017938;28;20062;-75
2023/05/30 03:10:51;;;;;;;0.10;0.10;;;;;;;;;;5003873;28;20109;-75
2023/05/30 03:13:17;;;;;;;0.10;0.10;;;;;;;;;;5016510;28;20058;-75
2023/05/30 03:15:44;;;;;;;0.10;0.10;;;;;;;;;;5023729;28;20081;-75
2023/05/30 03:18:11;;;;;;;0.10;0.10;;;;;;;;;;5023336;28;20064;-75
2023/05/30 03:20:37;;;;;;;0.10;0.10;;;;;;;;;;5020370;28;20054;-75
2023/05/30 03:23:03;;;;;;;0.10;0.10;;;;;;;;;;5020873;28;20053;-75
2023/05/30 03:25:30;;;;;;;0.10;0.10;;;;;;;;;;5021875;28;20141;-75
2023/05/30 03:27:56;;;;;;;0.20;0.20;;;;;;;;;;5020816;28;20170;-75
2023/05/30 03:30:26;;;;;;;0.10;0.10;;;;;;;;;;5023030;28;20057;-75
2023/05/30 03:32:53;;;;;;;0.10;0.10;;;;;;;;;;5016366;28;20057;-75
2023/05/30 03:35:19;;;;;;;0.10;0.10;;;;;;;;;;5022577;28;20053;-75
2023/05/30 03:37:46;;;;;;;0.10;0.10;;;;;;;;;;5020320;28;20579;-75
2023/05/30 03:40:12;;;;;;;0.10;0.10;;;;;;;;;;5003125;28;20054;-75
2023/05/30 03:42:39;;;;;;;0.10;0.10;;;;;;;;;;5010610;28;20089;-75
2023/05/30 03:45:10;;;;;;;0.10;0.10;;;;;;;;;;5022224;28;21091;-75
2023/05/30 03:47:36;;;;;;;0.10;0.10;;;;;;;;;;5006747;28;20066;-75
2023/05/30 03:50:03;;;;;;;0.10;0.10;;;;;;;;;;5004340;28;20054;-75
2023/05/30 03:52:29;;;;;;;0.10;0.10;;;;;;;;;;5008680;28;20057;-75
2023/05/30 03:54:56;;;;;;;0.10;0.10;;;;;;;;;;5020950;28;20909;-75
2023/05/30 03:57:23;;;;;;;0.10;0.10;;;;;;;;;;5021130;28;20505;-75
2023/05/30 03:59:50;;;;;;;0.10;0.10;;;;;;;;;;5023538;28;20050;-75
2023/05/30 04:02:16;;;;;;;0.10;0.10;;;;;;;;;;5023220;28;20056;-75
2023/05/30 04:04:43;;;;;;;0.15;0.15;;;;;;;;;;5022352;28;20141;-75
2023/05/30 04:07:09;;;;;;;0.20;0.20;;;;;;;;;;5022538;28;20050;-75
2023/05/30 04:09:36;;;;;;;0.10;0.10;;;;;;;;;;5021520;28;20076;-76
2023/05/30 04:12:02;;;;;;;0.10;0.10;;;;;;;;;;5023151;28;20582;-76
2023/05/30 04:14:29;;;;;;;0.10;0.10;;;;;;;;;;5022512;28;20061;-76
2023/05/30 04:16:55;;;;;;;0.10;0.10;;;;;;;;;;5022324;28;20062;-76
2023/05/30 04:19:22;;;;;;;0.10;0.10;;;;;;;;;;5019859;28;20144;-76
2023/05/30 04:21:48;;;;;;;0.10;0.10;;;;;;;;;;5023001;28;20606;-76
2023/05/30 04:24:15;;;;;;;0.10;0.10;;;;;;;;;;5020198;28;20053;-76
2023/05/30 04:26:44;;;;;;;0.10;0.10;;;;;;;;;;5019546;28;20136;-76
2023/05/30 04:29:11;;;;;;;0.10;0.10;;;;;;;;;;5019224;28;20062;-76
2023/05/30 04:31:38;;;;;;;0.10;0.10;;;;;;;;;;5023079;28;20050;-76
2023/05/30 04:34:05;;;;;;;0.10;0.10;;;;;;;;;;5023080;28;20050;-76
2023/05/30 04:36:36;;;;;;;0.60;0.60;;;;;;;;;;5022393;28;20913;-76
2023/05/30 04:39:04;;;;;;;0.10;0.10;;;;;;;;;;5023771;28;20069;-76
2023/05/30 04:41:32;;;;;;;0.10;0.10;;;;;;;;;;5025635;28;20042;-76
2023/05/30 04:43:59;;;;;;;0.10;0.10;;;;;;;;;;5010652;28;20053;-76
2023/05/30 04:46:27;;;;;;;0.70;0.70;;;;;;;;;;5005756;28;20980;-76
2023/05/30 04:49:00;;;;;;;0.10;0.10;;;;;;;;;;5024667;28;20136;-76
2023/05/30 04:51:28;;;;;;;0.10;0.10;;;;;;;;;;5025070;28;20054;-76
2023/05/30 04:53:55;;;;;;;0.10;0.10;;;;;;;;;;5025174;28;20050;-76
2023/05/30 04:56:21;;;;;;;0.10;0.10;;;;;;;;;;5025242;28;20057;-76
2023/05/30 04:58:51;;;;;;;0.10;0.10;;;;;;;;;;5026630;28;20054;-76
2023/05/30 05:01:18;;;;;;;0.10;0.10;;;;;;;;;;5023853;28;20076;-77
2023/05/30 05:03:45;;;;;;;0.10;0.10;;;;;;;;;;5025002;28;20444;-77
2023/05/30 05:06:12;;;;;;;0.10;0.10;;;;;;;;;;5024661;28;20050;-77
2023/05/30 05:08:38;;;;;;;0.10;0.10;;;;;;;;;;5026335;28;20228;-77
2023/05/30 05:11:05;;;;;;;0.10;0.10;;;;;;;;;;5025417;28;20147;-77
2023/05/30 05:13:32;;;;;;;0.10;0.10;;;;;;;;;;5024550;28;20050;-77
2023/05/30 05:15:59;;;;;;;0.20;0.20;;;;;;;;;;5025758;28;20054;-77
2023/05/30 05:18:26;;;;;;;0.10;0.10;;;;;;;;;;5024855;28;20173;-76
2023/05/30 05:20:53;;;;;;;0.10;0.10;;;;;;;;;;5024399;28;20054;-77
2023/05/30 05:23:22;;;;;;;0.10;0.10;;;;;;;;;;5024452;28;20054;-77
2023/05/30 05:31:21;;;;;;;0.10;0.10;;;;;;;;;;5058011;28;20048;-76
2023/05/30 05:33:47;;;;;;;0.45;0.35;;;;;;;;;;5070133;28;20049;-76
2023/05/30 05:36:14;;;;;;;0.13;0.13;;;;;;;;;;5061364;28;20147;-76
2023/05/30 05:38:40;;;;;;;0.13;0.13;;;;;;;;;;5051940;28;20045;-75
2023/05/30 05:41:07;;;;;;;0.10;0.10;;;;;;;;;;5636799;22;20098;-75
2023/05/30 05:43:48;;;;;;;0.10;0.10;;;;;;;;;;5008958;28;20530;-76
2023/05/30 05:46:14;;;;;;;0.10;0.10;;;;;;;;;;5029498;28;20057;-76
2023/05/30 05:48:41;;;;;;;0.10;0.10;;;;;;;;;;5024828;28;20061;-76
2023/05/30 05:51:07;;;;;;;0.10;0.10;;;;;;;;;;5022804;28;20178;-76
2023/05/30 05:53:34;;;;;;;0.30;0.30;;;;;;;;;;5017492;28;20612;-76
2023/05/30 05:56:00;;;;;;;0.10;0.10;;;;;;;;;;5746510;22;20104;-76
2023/05/30 05:58:27;;;;;;;0.10;0.10;;;;;;;;;;5036452;28;20055;-76
2023/05/30 06:00:53;;;;;;;0.13;0.13;;;;;;;;;;5043882;28;20049;-77
2023/05/30 06:03:20;;;;;;;0.15;0.13;;;;;;;;;;5044805;28;20165;-76
2023/05/30 06:05:47;;;;;;;0.10;0.10;;;;;;;;;;5047859;28;20462;-78
2023/05/30 06:08:13;;;;;;;0.10;0.10;;;;;;;;;;5045872;28;20049;-76
2023/05/30 06:10:40;;;;;;;0.10;0.10;;;;;;;;;;5044548;28;20141;-77
2023/05/30 06:13:07;;;;;;;0.20;0.20;;;;;;;;;;5037909;28;20053;-77
2023/05/30 06:15:40;;;;;;;0.10;0.10;;;;;;;;;;5044997;28;20060;-76
2023/05/30 06:18:07;;;;;;;0.20;0.20;;;;;;;;;;5046036;28;20080;-76
2023/05/30 06:20:33;;;;;;;0.10;0.10;;;;;;;;;;5046150;28;20133;-77
2023/05/30 06:22:59;;;;;;;0.10;0.10;;;;;;;;;;5061791;28;20079;-76
2023/05/30 06:25:27;;;;;;;0.15;0.15;;;;;;;;;;5052614;28;20549;-75
2023/05/30 06:27:54;;;;;;;0.17;0.17;;;;;;;;;;5060990;28;20049;-77
2023/05/30 06:30:20;;;;;;;9.13;1.33;;;;;;;;;;5048992;28;20558;-75
2023/05/30 06:32:47;;;;;;;0.20;0.20;;;;;;;;;;5049990;28;20356;-77
2023/05/30 06:35:14;;;;;;;0.10;0.10;;;;;;;;;;5043411;28;20119;-77
2023/05/30 06:37:41;;;;;;;0.10;0.10;;;;;;;;;;5041425;28;20062;-75
2023/05/30 06:40:08;;;;;;;0.10;0.10;;;;;;;;;;5057652;28;20506;-75
2023/05/30 06:42:35;;;;;;;0.85;0.55;;;;;;;;;;5051549;28;20105;-76
2023/05/30 06:45:01;;;;;;;0.10;0.10;;;;;;;;;;5045357;28;20060;-77
2023/05/30 06:47:28;;;;;;;0.10;0.10;;;;;;;;;;5044819;28;20072;-77
2023/05/30 06:49:54;;;;;;;0.43;0.30;;;;;;;;;;5048179;28;20060;-77
2023/05/30 06:52:21;;;;;;;0.10;0.10;;;;;;;;;;5065740;28;20545;-76
2023/05/30 06:54:47;;;;;;;0.20;0.20;;;;;;;;;;5046953;28;20057;-76
2023/05/30 06:57:14;;;;;;;0.55;0.50;;;;;;;;;;5049878;28;20054;-77
2023/05/30 06:59:40;;;;;;;0.10;0.10;;;;;;;;;;5058022;28;20084;-78
2023/05/30 07:02:07;;;;;;;0.20;0.20;;;;;;;;;;5031129;28;20057;-77
2023/05/30 07:04:35;;;;;;;0.25;0.20;;;;;;;;;;5034241;28;20058;-77
2023/05/30 07:07:01;;;;;;;0.52;0.38;;;;;;;;;;5041734;28;20049;-77
2023/05/30 07:09:28;;;;;;;0.15;0.15;;;;;;;;;;5049254;28;20060;-77
2023/05/30 07:11:55;;;;;;;0.38;0.20;;;;;;;;;;5047023;28;20054;-78
2023/05/30 07:14:21;;;;;;;0.10;0.10;;;;;;;;;;5047615;28;20204;-76
2023/05/30 07:16:47;;;;;;;0.70;0.70;;;;;;;;;;5048127;28;20116;-76
2023/05/30 07:19:14;;;;;;;0.43;0.30;;;;;;;;;;5047790;28;20050;-76
2023/05/30 07:21:40;;;;;;;0.20;0.20;;;;;;;;;;5047910;28;20053;-74
2023/05/30 07:24:07;;;;;;;0.35;0.32;;;;;;;;;;5053996;28;20053;-76
2023/05/30 07:26:34;;;;;;;0.43;0.30;;;;;;;;;;5042999;28;20088;-76
2023/05/30 07:29:00;;;;;;;0.20;0.20;;;;;;;;;;5043808;28;20083;-75
2023/05/30 07:31:30;;;;;;;1.00;0.75;;;;;;;;;;5051173;28;20621;-75
2023/05/30 07:33:56;;;;;;;0.25;0.25;;;;;;;;;;5041799;28;20104;-77
2023/05/30 07:36:23;;;;;;;0.10;0.10;;;;;;;;;;5035502;28;20145;-76
2023/05/30 07:38:50;;;;;;;0.10;0.10;;;;;;;;;;5035342;28;20423;-78
2023/05/30 07:41:16;;;;;;;0.30;0.30;;;;;;;;;;5024310;28;20057;-78
2023/05/30 07:43:43;;;;;;;0.10;0.10;;;;;;;;;;5031375;28;20103;-76
2023/05/30 07:46:09;;;;;;;0.20;0.20;;;;;;;;;;5036934;28;20057;-75
2023/05/30 07:48:36;;;;;;;0.32;0.30;;;;;;;;;;5037156;28;20057;-74
2023/05/30 07:51:02;;;;;;;0.10;0.10;;;;;;;;;;5043587;28;20896;-75
2023/05/30 07:53:29;;;;;;;0.40;0.30;;;;;;;;;;5042819;28;20049;-75
2023/05/30 07:55:55;;;;;;;1.02;0.98;;;;;;;;;;5043041;28;20080;-74
2023/05/30 07:58:22;;;;;;;0.45;0.45;;;;;;;;;;5043260;28;20056;-75
2023/05/30 08:00:49;;;;;;;0.55;0.55;;;;;;;;;;5034678;28;20577;-74
2023/05/30 08:03:15;;;;;;;0.35;0.35;;;;;;;;;;5034503;28;20131;-76
2023/05/30 08:05:42;;;;;;;0.20;0.20;;;;;;;;;;5042394;28;20089;-75
2023/05/30 08:08:09;;;;;;;0.20;0.20;;;;;;;;;;5046002;28;20173;-77
2023/05/30 08:10:35;;;;;;;0.20;0.20;;;;;;;;;;5044958;28;20061;-77
2023/05/30 08:13:01;;;;;;;0.20;0.20;;;;;;;;;;5044775;28;20182;-79
2023/05/30 08:15:28;;;;;;;2.75;1.00;;;;;;;;;;5048066;28;20057;-79
2023/05/30 08:18:00;;;;;;;0.20;0.20;;;;;;;;;;5047542;28;20116;-77
2023/05/30 08:20:26;;;;;;;0.10;0.10;;;;;;;;;;5048417;28;20138;-76
2023/05/30 08:22:53;;;;;;;0.20;0.20;;;;;;;;;;5045048;28;20590;-81
2023/05/30 08:25:32;;;;;;;0.30;0.30;;;;;;;;;;5048395;28;20050;-78
2023/05/30 08:27:59;;;;;;;0.57;0.57;;;;;;;;;;5043722;28;20981;-77
2023/05/30 08:30:25;;;;;;;0.20;0.20;;;;;;;;;;5048039;28;20089;-76
2023/05/30 08:32:53;;;;;;;0.20;0.20;;;;;;;;;;5046988;28;20041;-77
2023/05/30 08:35:20;;;;;;;0.38;0.38;;;;;;;;;;5037658;28;20085;-77
2023/05/30 08:37:46;;;;;;;0.50;0.40;;;;;;;;;;5033291;28;20049;-79
2023/05/30 08:42:49;;;;;;;0.45;0.40;;;;;;;;;;6174868;22;20020;-76
2023/05/30 08:45:16;;;;;;;1.95;1.85;;;;;;;;;;4985364;28;20495;-75
2023/05/30 08:47:44;;;;;;;0.43;0.40;;;;;;;;;;5029855;28;20064;-75
2023/05/30 08:50:12;;;;;;;0.20;0.20;;;;;;;;;;5037278;28;20577;-75
2023/05/30 08:52:40;;;;;;;0.90;0.88;;;;;;;;;;5043223;28;20056;-76
2023/05/30 08:55:13;;;;;;;0.20;0.20;;;;;;;;;;5044705;28;20057;-77
2023/05/30 08:57:44;;;;;;;0.20;0.20;;;;;;;;;;5037421;28;20058;-76
2023/05/30 09:00:13;;;;;;;0.77;0.30;;;;;;;;;;5039837;28;20531;-76
2023/05/30 09:02:39;;;;;;;0.25;0.22;;;;;;;;;;5042624;28;20049;-76
2023/05/30 09:05:07;;;;;;;0.90;0.40;;;;;;;;;;5046719;28;20053;-76
2023/05/30 09:07:34;;;;;;;0.20;0.20;;;;;;;;;;5035640;28;20049;-75
2023/05/30 09:10:01;;;;;;;0.45;0.30;;;;;;;;;;5032155;28;20058;-75
2023/05/30 09:12:28;;;;;;;0.20;0.20;;;;;;;;;;5025946;28;20057;-75
2023/05/30 09:14:54;;;;;;;0.30;0.30;;;;;;;;;;5037264;28;20057;-75
2023/05/30 09:17:21;;;;;;;0.20;0.20;;;;;;;;;;5043368;28;20084;-75
2023/05/30 09:19:48;;;;;;;5.38;0.50;;;;;;;;;;5044492;28;20054;-75
2023/05/30 09:22:15;;;;;;;0.30;0.30;;;;;;;;;;5041253;28;20050;-75
2023/05/30 09:24:59;;;;;;;0.30;0.30;;;;;;;;;;5028073;28;20629;-75
2023/05/30 09:27:28;;;;;;;0.20;0.20;;;;;;;;;;5037789;28;20084;-75
2023/05/30 09:29:55;;;;;;;0.28;0.28;;;;;;;;;;5045712;28;20167;-75
2023/05/30 09:32:34;;;;;;;0.20;0.20;;;;;;;;;;5027535;28;20080;-75
2023/05/30 09:35:03;;;;;;;0.25;0.25;;;;;;;;;;5026685;28;20058;-75
2023/05/30 09:37:37;;;;;;;0.10;0.10;;;;;;;;;;5025496;28;20100;-75
2023/05/30 09:40:15;;;;;;;1.48;0.40;;;;;;;;;;5029321;28;20060;-75
2023/05/30 09:42:46;;;;;;;0.38;0.38;;;;;;;;;;5041594;28;20059;-75
2023/05/30 09:45:13;;;;;;;0.20;0.20;;;;;;;;;;5025027;28;20975;-75
2023/05/30 09:47:44;;;;;;;0.30;0.30;;;;;;;;;;5028504;28;20054;-75
2023/05/30 09:50:12;;;;;;;3.83;1.45;;;;;;;;;;5026967;28;20840;-75
2023/05/30 09:52:40;;;;;;;0.10;0.10;;;;;;;;;;5027428;28;20884;-76
2023/05/30 09:55:07;;;;;;;0.57;0.50;;;;;;;;;;5037501;28;20428;-75
2023/05/30 09:57:35;;;;;;;0.20;0.20;;;;;;;;;;5043393;28;20060;-76
2023/05/30 10:00:06;;;;;;;0.20;0.20;;;;;;;;;;5045231;28;20504;-76
2023/05/30 10:02:33;;;;;;;1.25;1.15;;;;;;;;;;5040702;28;20088;-75
2023/05/30 10:04:59;;;;;;;0.20;0.20;;;;;;;;;;5031745;28;20054;-75
2023/05/30 10:07:26;;;;;;;0.65;0.65;;;;;;;;;;5038003;28;20602;-75
2023/05/30 10:09:54;;;;;;;0.43;0.43;;;;;;;;;;5041699;28;20119;-75
2023/05/30 10:12:21;;;;;;;0.20;0.20;;;;;;;;;;5044886;28;20050;-76
2023/05/30 10:14:48;;;;;;;0.63;0.60;;;;;;;;;;5036063;28;20179;-75
2023/05/30 10:17:16;;;;;;;0.30;0.30;;;;;;;;;;5037379;28;20137;-75
2023/05/30 10:19:42;;;;;;;1.70;1.05;;;;;;;;;;5030063;28;20053;-75
2023/05/30 10:22:09;;;;;;;0.20;0.20;;;;;;;;;;5027397;28;20049;-75
2023/05/30 10:24:36;;;;;;;0.30;0.30;;;;;;;;;;5026476;28;20132;-75
2023/05/30 10:27:03;;;;;;;0.30;0.30;;;;;;;;;;5043608;28;20045;-75
2023/05/30 10:29:32;;;;;;;1.73;1.63;;;;;;;;;;5042670;28;20053;-76
2023/05/30 10:32:01;;;;;;;0.20;0.20;;;;;;;;;;5044210;28;20922;-75
2023/05/30 10:34:31;;;;;;;0.38;0.30;;;;;;;;;;5036978;28;20116;-75
2023/05/30 10:36:59;;;;;;;0.25;0.25;;;;;;;;;;5039266;28;20148;-75
2023/05/30 10:39:28;;;;;;;0.20;0.20;;;;;;;;;;5041027;28;20049;-76
2023/05/30 10:42:05;;;;;;;0.22;0.22;;;;;;;;;;5041112;28;20574;-75
2023/05/30 10:44:54;;;;;;;0.20;0.20;;;;;;;;;;5030516;28;20054;-75
2023/05/30 10:47:29;;;;;;;0.20;0.20;;;;;;;;;;5041548;28;20057;-75
2023/05/30 10:49:57;;;;;;;0.50;0.30;;;;;;;;;;5032287;28;20058;-75
2023/05/30 10:52:31;;;;;;;2.00;0.35;;;;;;;;;;5027105;28;20062;-75
2023/05/30 10:54:58;;;;;;;0.30;0.30;;;;;;;;;;5030533;28;21126;-73
2023/05/30 10:57:27;;;;;;;0.40;0.40;;;;;;;;;;5027180;28;20084;-74
2023/05/30 11:00:10;;;;;;;0.57;0.57;;;;;;;;;;5025534;28;20092;-74
2023/05/30 11:02:37;;;;;;;0.20;0.20;;;;;;;;;;5030352;28;20812;-74
2023/05/30 11:05:08;;;;;;;0.20;0.20;;;;;;;;;;5028983;28;20104;-74
2023/05/30 11:07:38;;;;;;;0.30;0.30;;;;;;;;;;5027585;28;20129;-75
2023/05/30 11:10:10;;;;;;;0.20;0.20;;;;;;;;;;5040447;28;20046;-74
2023/05/30 11:12:47;;;;;;;0.22;0.22;;;;;;;;;;5040206;28;20103;-73
2023/05/30 11:15:15;;;;;;;0.40;0.30;;;;;;;;;;5025367;28;20046;-74
2023/05/30 11:17:42;;;;;;;0.30;0.30;;;;;;;;;;5025432;28;20053;-75
2023/05/30 11:20:14;;;;;;;0.50;0.50;;;;;;;;;;5035239;28;20052;-74
2023/05/30 11:23:00;;;;;;;0.20;0.20;;;;;;;;;;5025037;28;20510;-74
2023/05/30 11:25:28;;;;;;;0.57;0.32;;;;;;;;;;5023721;28;20488;-74
2023/05/30 11:28:04;;;;;;;0.30;0.30;;;;;;;;;;5027622;28;20054;-74
2023/05/30 11:30:32;;;;;;;4.15;0.43;;;;;;;;;;5025862;28;20492;-74
2023/05/30 11:32:59;;;;;;;0.32;0.30;;;;;;;;;;5030748;28;20049;-74
2023/05/30 11:35:26;;;;;;;0.20;0.20;;;;;;;;;;5026390;28;20586;-73
2023/05/30 11:37:55;;;;;;;0.38;0.38;;;;;;;;;;5036470;28;20519;-74
2023/05/30 11:40:21;;;;;;;0.88;0.40;;;;;;;;;;5032964;28;20077;-74
2023/05/30 11:42:54;;;;;;;0.20;0.20;;;;;;;;;;5024070;28;21000;-74
2023/05/30 11:45:24;;;;;;;0.30;0.30;;;;;;;;;;5023245;28;20057;-75
2023/05/30 11:47:51;;;;;;;0.20;0.20;;;;;;;;;;5023033;28;20034;-74
2023/05/30 11:50:19;;;;;;;0.30;0.25;;;;;;;;;;5031037;28;20153;-74
2023/05/30 11:52:45;;;;;;;0.52;0.43;;;;;;;;;;5045085;28;20579;-74
2023/05/30 11:55:12;;;;;;;3.20;0.40;;;;;;;;;;5030222;28;20054;-74
2023/05/30 11:57:38;;;;;;;0.35;0.30;;;;;;;;;;5041065;28;20549;-74
2023/05/30 12:00:09;;;;;;;0.30;0.30;;;;;;;;;;5043655;28;20060;-74
2023/05/30 12:02:35;;;;;;;0.52;0.40;;;;;;;;;;5030696;28;20607;-75
2023/05/30 12:05:03;;;;;;;0.28;0.28;;;;;;;;;;5038540;28;20056;-75
2023/05/30 12:07:30;;;;;;;0.20;0.20;;;;;;;;;;5044251;28;20578;-75
2023/05/30 12:09:56;;;;;;;0.50;0.50;;;;;;;;;;5042906;28;20115;-75
2023/05/30 12:12:23;;;;;;;0.20;0.20;;;;;;;;;;5038858;28;20064;-75
2023/05/30 12:14:55;;;;;;;0.20;0.20;;;;;;;;;;5025418;28;20054;-75
2023/05/30 12:17:25;;;;;;;0.30;0.30;;;;;;;;;;5035218;28;20526;-75
2023/05/30 12:19:55;;;;;;;0.30;0.30;;;;;;;;;;5043648;28;20062;-75
2023/05/30 12:22:23;;;;;;;0.32;0.30;;;;;;;;;;5036248;28;20062;-75
2023/05/30 12:24:49;;;;;;;0.30;0.30;;;;;;;;;;5029713;28;20058;-74
2023/05/30 12:27:17;;;;;;;0.20;0.20;;;;;;;;;;5041798;28;20124;-75
2023/05/30 12:29:43;;;;;;;0.22;0.22;;;;;;;;;;5043214;28;20516;-75
2023/05/30 12:32:10;;;;;;;0.40;0.40;;;;;;;;;;5037871;28;21057;-75
2023/05/30 12:34:38;;;;;;;0.20;0.20;;;;;;;;;;5041940;28;20120;-75
2023/05/30 12:37:11;;;;;;;0.95;0.95;;;;;;;;;;5042318;28;20057;-75
2023/05/30 12:40:04;;;;;;;0.20;0.20;;;;;;;;;;5043454;28;20064;-76
2023/05/30 12:42:31;;;;;;;0.30;0.30;;;;;;;;;;5028264;28;20168;-75
2023/05/30 12:45:02;;;;;;;0.30;0.30;;;;;;;;;;5022228;28;20132;-75
2023/05/30 12:47:29;;;;;;;0.20;0.20;;;;;;;;;;5036201;28;20050;-75
2023/05/30 12:49:57;;;;;;;0.25;0.25;;;;;;;;;;5043822;28;20116;-75
2023/05/30 12:52:24;;;;;;;0.20;0.20;;;;;;;;;;5038154;28;20081;-75
2023/05/30 12:54:51;;;;;;;0.22;0.22;;;;;;;;;;5040964;28;20057;-75
2023/05/30 12:57:19;;;;;;;0.30;0.30;;;;;;;;;;5041256;28;20130;-75
2023/05/30 12:59:46;;;;;;;0.30;0.30;;;;;;;;;;5044204;28;20876;-75
2023/05/30 13:02:13;;;;;;;0.52;0.50;;;;;;;;;;5035379;28;20944;-75
2023/05/30 13:04:39;;;;;;;0.50;0.50;;;;;;;;;;5047310;28;20065;-75
2023/05/30 13:07:09;;;;;;;0.20;0.20;;;;;;;;;;5039541;28;20057;-75
2023/05/30 13:09:36;;;;;;;0.90;0.75;;;;;;;;;;5026311;28;20065;-75
2023/05/30 13:12:04;;;;;;;0.20;0.20;;;;;;;;;;5030412;28;20064;-74
2023/05/30 13:14:31;;;;;;;0.20;0.20;;;;;;;;;;5045982;28;20541;-74
2023/05/30 13:16:57;;;;;;;0.22;0.22;;;;;;;;;;5046547;28;20084;-75
2023/05/30 13:19:24;;;;;;;0.30;0.30;;;;;;;;;;5037856;28;20086;-75
2023/05/30 13:21:51;;;;;;;0.20;0.20;;;;;;;;;;5025901;28;20104;-74
2023/05/30 13:24:17;;;;;;;0.40;0.40;;;;;;;;;;5042090;28;20057;-74
2023/05/30 13:26:44;;;;;;;0.30;0.30;;;;;;;;;;5028233;28;20513;-75
2023/05/30 13:29:10;;;;;;;0.20;0.20;;;;;;;;;;5026479;28;20057;-74
2023/05/30 13:31:37;;;;;;;0.20;0.20;;;;;;;;;;5043376;28;20057;-74
2023/05/30 13:34:03;;;;;;;0.30;0.30;;;;;;;;;;5039845;28;20073;-74
2023/05/30 13:36:30;;;;;;;0.20;0.20;;;;;;;;;;5044863;28;20087;-74
2023/05/30 13:38:56;;;;;;;0.20;0.20;;;;;;;;;;5046011;28;20068;-74
2023/05/30 13:41:25;;;;;;;0.20;0.20;;;;;;;;;;5045257;28;20061;-75
2023/05/30 13:43:52;;;;;;;0.20;0.20;;;;;;;;;;5038369;28;20054;-74
2023/05/30 13:46:19;;;;;;;0.43;0.28;;;;;;;;;;5045391;28;20534;-75
2023/05/30 13:48:46;;;;;;;1.30;0.40;;;;;;;;;;5045907;28;20050;-75
2023/05/30 13:51:12;;;;;;;0.20;0.20;;;;;;;;;;5045795;28;20080;-74
2023/05/30 13:53:39;;;;;;;0.22;0.22;;;;;;;;;;5038100;28;20061;-75
2023/05/30 13:56:10;;;;;;;0.25;0.25;;;;;;;;;;5040586;28;20112;-74
2023/05/30 13:58:37;;;;;;;0.40;0.40;;;;;;;;;;5045691;28;20061;-74
2023/05/30 14:01:03;;;;;;;0.20;0.20;;;;;;;;;;5038912;28;20185;-74
2023/05/30 14:03:30;;;;;;;0.20;0.20;;;;;;;;;;5038402;28;20149;-75
2023/05/30 14:05:57;;;;;;;0.20;0.20;;;;;;;;;;5034261;28;20053;-75
2023/05/30 14:08:23;;;;;;;0.10;0.10;;;;;;;;;;5041464;28;20049;-75
2023/05/30 14:10:50;;;;;;;0.30;0.30;;;;;;;;;;5026377;28;20296;-75
2023/05/30 14:13:17;;;;;;;0.20;0.20;;;;;;;;;;5040944;28;20519;-75
2023/05/30 14:15:43;;;;;;;0.30;0.30;;;;;;;;;;5032469;28;20172;-73
2023/05/30 14:18:10;;;;;;;0.38;0.30;;;;;;;;;;5036524;28;20121;-73
2023/05/30 14:20:36;;;;;;;0.47;0.40;;;;;;;;;;5045085;28;20054;-75
2023/05/30 14:23:03;;;;;;;0.22;0.20;;;;;;;;;;5026965;28;20060;-74
2023/05/30 14:25:29;;;;;;;0.20;0.20;;;;;;;;;;5042397;28;20057;-75
2023/05/30 14:27:56;;;;;;;0.43;0.38;;;;;;;;;;5036800;28;20060;-74
2023/05/30 14:30:22;;;;;;;0.20;0.20;;;;;;;;;;5043593;28;20053;-74
2023/05/30 14:32:49;;;;;;;0.20;0.20;;;;;;;;;;5045162;28;20053;-74
2023/05/30 14:35:15;;;;;;;0.20;0.20;;;;;;;;;;5044294;28;20181;-75
2023/05/30 14:37:42;;;;;;;0.30;0.30;;;;;;;;;;5045085;28;20519;-75
2023/05/30 14:40:09;;;;;;;0.20;0.20;;;;;;;;;;5033691;28;20531;-75
2023/05/30 14:42:36;;;;;;;0.30;0.30;;;;;;;;;;5029972;28;20105;-75
2023/05/30 14:45:02;;;;;;;0.20;0.20;;;;;;;;;;5035954;28;20132;-74
2023/05/30 14:47:29;;;;;;;0.20;0.20;;;;;;;;;;5041303;28;20786;-74
2023/05/30 14:49:55;;;;;;;0.40;0.30;;;;;;;;;;5041880;28;20062;-75
2023/05/30 14:52:22;;;;;;;0.30;0.30;;;;;;;;;;5039677;28;20054;-75
2023/05/30 14:54:48;;;;;;;0.30;0.30;;;;;;;;;;5043861;28;20053;-74